createdAt,value
2019-04-07T00:02:00.989Z,7.00
2019-04-07T00:04:31.097Z,6.90
2019-04-07T00:07:05.079Z,6.90
2019-04-07T00:09:54.143Z,6.80
2019-04-07T00:12:27.731Z,6.70
2019-04-07T00:14:57.946Z,6.70
2019-04-07T00:17:27.843Z,6.80
2019-04-07T00:19:58.120Z,6.70
2019-04-07T00:22:52.420Z,6.60
2019-04-07T00:25:22.662Z,6.60
2019-04-07T00:27:52.383Z,6.70
2019-04-07T00:30:22.394Z,6.70
2019-04-07T00:32:52.027Z,6.70
2019-04-07T00:35:28.112Z,6.70
2019-04-07T00:37:53.195Z,6.70
2019-04-07T00:40:22.786Z,6.60
2019-04-07T00:42:52.601Z,6.50
2019-04-07T00:45:22.227Z,6.40
2019-04-07T00:47:52.549Z,6.40
2019-04-07T00:50:22.930Z,6.40
2019-04-07T00:52:53.093Z,6.40
2019-04-07T00:55:23.157Z,6.40
2019-04-07T00:57:52.962Z,6.40
2019-04-07T01:00:24.406Z,6.40
2019-04-07T01:02:54.161Z,6.40
2019-04-07T01:05:35.438Z,6.30
2019-04-07T01:07:56.420Z,6.30
2019-04-07T01:10:27.279Z,6.30
2019-04-07T01:13:03.195Z,6.30
2019-04-07T01:15:33.096Z,6.20
2019-04-07T01:18:02.834Z,6.10
2019-04-07T01:20:32.416Z,6.10
2019-04-07T01:23:02.801Z,6.10
2019-04-07T01:25:32.627Z,6.00
2019-04-07T01:28:02.502Z,6.00
2019-04-07T01:30:32.686Z,6.00
2019-04-07T01:33:02.325Z,6.00
2019-04-07T01:35:32.071Z,6.00
2019-04-07T01:38:02.404Z,6.00
2019-04-07T01:40:32.210Z,5.90
2019-04-07T01:43:13.174Z,5.90
2019-04-07T01:46:00.217Z,5.90
2019-04-07T01:48:47.288Z,5.80
2019-04-07T01:51:38.633Z,5.80
2019-04-07T01:54:42.173Z,5.80
2019-04-07T01:57:49.263Z,5.80
2019-04-07T02:00:44.589Z,5.80
2019-04-07T02:03:42.249Z,5.80
2019-04-07T02:06:32.019Z,5.80
2019-04-07T02:09:28.994Z,5.80
2019-04-07T02:12:39.264Z,5.80
2019-04-07T02:15:26.005Z,5.70
2019-04-07T02:18:04.360Z,5.70
2019-04-07T02:24:37.434Z,5.70
2019-04-07T02:27:33.925Z,5.70
2019-04-07T02:30:24.156Z,5.90
2019-04-07T02:33:12.737Z,5.80
2019-04-07T02:36:15.657Z,5.70
2019-04-07T02:38:56.231Z,5.70
2019-04-07T02:41:48.987Z,5.60
2019-04-07T02:45:02.153Z,5.60
2019-04-07T02:47:51.484Z,5.60
2019-04-07T02:50:43.356Z,5.50
2019-04-07T02:53:36.929Z,5.30
2019-04-07T02:56:29.330Z,5.40
2019-04-07T02:59:04.733Z,5.30
2019-04-07T03:01:46.708Z,5.30
2019-04-07T03:04:41.560Z,5.30
2019-04-07T03:07:41.457Z,5.20
2019-04-07T03:10:26.081Z,5.00
2019-04-07T03:13:14.671Z,5.10
2019-04-07T03:15:58.637Z,5.00
2019-04-07T03:18:46.345Z,5.00
2019-04-07T03:24:38.639Z,5.10
2019-04-07T03:27:54.829Z,5.10
2019-04-07T03:30:44.940Z,5.00
2019-04-07T03:33:48.088Z,5.00
2019-04-07T03:37:17.248Z,5.00
2019-04-07T03:39:40.907Z,5.00
2019-04-07T03:42:29.907Z,5.00
2019-04-07T03:45:20.331Z,4.90
2019-04-07T03:48:02.055Z,4.90
2019-04-07T03:50:57.546Z,4.90
2019-04-07T03:53:35.664Z,4.90
2019-04-07T03:56:30.964Z,4.90
2019-04-07T03:59:11.737Z,4.90
2019-04-07T04:02:00.871Z,4.90
2019-04-07T04:05:06.898Z,4.90
2019-04-07T04:07:59.612Z,4.90
2019-04-07T04:10:44.984Z,4.80
2019-04-07T04:13:36.021Z,4.80
2019-04-07T04:16:28.568Z,4.70
2019-04-07T04:19:02.470Z,4.60
2019-04-07T04:21:40.377Z,4.50
2019-04-07T04:24:10.475Z,4.50
2019-04-07T04:26:46.013Z,4.50
2019-04-07T04:29:24.587Z,4.60
2019-04-07T04:32:09.782Z,4.60
2019-04-07T04:34:43.920Z,4.70
2019-04-07T04:37:39.907Z,4.70
2019-04-07T04:40:14.057Z,4.70
2019-04-07T04:42:53.811Z,4.60
2019-04-07T04:45:29.648Z,4.60
2019-04-07T04:48:13.925Z,4.50
2019-04-07T04:50:58.264Z,4.50
2019-04-07T04:53:39.889Z,4.60
2019-04-07T04:56:13.456Z,4.60
2019-04-07T04:58:52.040Z,4.60
2019-04-07T05:01:28.889Z,4.60
2019-04-07T05:03:59.418Z,4.70
2019-04-07T05:06:34.692Z,4.70
2019-04-07T05:09:17.911Z,4.70
2019-04-07T05:11:51.852Z,4.80
2019-04-07T05:14:25.776Z,4.80
2019-04-07T05:17:07.372Z,5.10
2019-04-07T05:19:43.246Z,5.10
2019-04-07T05:22:13.813Z,5.10
2019-04-07T05:24:43.955Z,5.10
2019-04-07T05:27:17.407Z,5.10
2019-04-07T05:29:51.066Z,5.20
2019-04-07T05:32:28.570Z,5.20
2019-04-07T05:34:59.075Z,5.30
2019-04-07T05:37:32.902Z,5.40
2019-04-07T05:40:06.263Z,5.40
2019-04-07T05:42:36.397Z,5.50
2019-04-07T05:45:07.425Z,5.60
2019-04-07T05:47:43.646Z,5.70
2019-04-07T05:50:21.271Z,5.80
2019-04-07T05:52:53.997Z,5.90
2019-04-07T05:55:27.182Z,6.00
2019-04-07T05:57:57.576Z,6.10
2019-04-07T06:00:28.591Z,6.20
2019-04-07T06:03:05.505Z,6.30
2019-04-07T06:05:34.484Z,6.50
2019-04-07T06:08:20.871Z,6.50
2019-04-07T06:10:36.993Z,6.50
2019-04-07T06:13:07.386Z,6.60
2019-04-07T06:15:38.181Z,6.70
2019-04-07T06:18:08.589Z,6.80
2019-04-07T06:20:47.558Z,6.70
2019-04-07T06:23:23.414Z,6.80
2019-04-07T06:25:55.593Z,6.80
2019-04-07T06:28:26.071Z,6.80
2019-04-07T06:30:59.618Z,7.00
2019-04-07T06:33:29.727Z,7.10
2019-04-07T06:36:03.824Z,7.20
2019-04-07T06:38:41.555Z,7.30
2019-04-07T06:41:09.224Z,7.40
2019-04-07T06:43:52.794Z,7.60
2019-04-07T06:46:45.583Z,7.70
2019-04-07T06:49:27.587Z,7.90
2019-04-07T06:52:14.697Z,8.10
2019-04-07T06:55:04.557Z,8.00
2019-04-07T06:57:52.626Z,8.20
2019-04-07T07:01:02.334Z,8.40
2019-04-07T07:03:42.057Z,8.80
2019-04-07T07:06:48.292Z,9.10
2019-04-07T07:09:45.935Z,9.30
2019-04-07T07:12:47.433Z,9.90
2019-04-07T07:16:01.548Z,10.40
2019-04-07T07:19:02.632Z,10.70
2019-04-07T07:21:43.518Z,10.90
2019-04-07T07:24:29.510Z,11.40
2019-04-07T07:27:00.353Z,11.90
2019-04-07T07:29:30.885Z,12.40
2019-04-07T07:32:04.922Z,12.90
2019-04-07T07:34:39.898Z,13.30
2019-04-07T07:37:18.330Z,14.00
2019-04-07T07:39:54.505Z,14.70
2019-04-07T07:42:27.722Z,15.60
2019-04-07T07:44:58.328Z,16.40
2019-04-07T07:47:28.547Z,16.90
2019-04-07T07:50:04.915Z,17.70
2019-04-07T07:52:33.044Z,16.60
2019-04-07T07:55:06.347Z,17.90
2019-04-07T07:57:39.037Z,19.20
2019-04-07T08:00:16.019Z,17.60
2019-04-07T08:02:51.457Z,19.10
2019-04-07T08:05:20.581Z,20.70
2019-04-07T08:07:51.229Z,21.60
2019-04-07T08:10:23.355Z,21.90
2019-04-07T08:12:55.162Z,21.90
2019-04-07T08:15:31.971Z,22.40
2019-04-07T08:18:03.191Z,23.10
2019-04-07T08:20:31.855Z,23.60
2019-04-07T08:23:02.663Z,23.90
2019-04-07T08:25:33.588Z,23.40
2019-04-07T08:28:04.690Z,21.60
2019-04-07T08:30:36.045Z,20.50
2019-04-07T08:33:09.372Z,21.30
2019-04-07T08:35:42.656Z,21.60
2019-04-07T08:38:13.832Z,22.40
2019-04-07T08:40:53.962Z,21.40
2019-04-07T08:43:29.314Z,21.10
2019-04-07T08:46:02.228Z,22.20
2019-04-07T08:48:32.209Z,22.60
2019-04-07T08:51:05.867Z,22.10
2019-04-07T08:53:38.885Z,21.50
2019-04-07T08:56:12.019Z,23.00
2019-04-07T08:58:42.469Z,21.90
2019-04-07T09:01:12.669Z,22.60
2019-04-07T09:03:49.633Z,23.60
2019-04-07T09:06:19.834Z,21.20
2019-04-07T09:08:53.206Z,22.40
2019-04-07T09:11:27.058Z,22.20
2019-04-07T09:13:58.197Z,23.50
2019-04-07T09:16:59.984Z,20.70
2019-04-07T09:19:40.031Z,21.30
2019-04-07T09:22:29.728Z,22.20
2019-04-07T09:25:18.238Z,21.40
2019-04-07T09:28:23.705Z,20.60
2019-04-07T09:31:03.587Z,20.90
2019-04-07T09:34:01.431Z,21.70
2019-04-07T09:36:51.617Z,22.00
2019-04-07T09:39:56.907Z,22.20
2019-04-07T09:42:45.995Z,22.30
2019-04-07T09:45:39.390Z,21.90
2019-04-07T09:48:25.280Z,21.10
2019-04-07T09:51:29.797Z,21.80
2019-04-07T09:54:42.631Z,22.50
2019-04-07T09:57:23.599Z,23.10
2019-04-07T10:00:27.675Z,22.50
2019-04-07T10:03:32.318Z,23.00
2019-04-07T10:06:13.189Z,23.30
2019-04-07T10:08:49.845Z,22.60
2019-04-07T10:11:48.761Z,22.40
2019-04-07T10:14:50.342Z,22.40
2019-04-07T10:17:31.774Z,22.30
2019-04-07T10:23:32.145Z,22.30
2019-04-07T10:26:27.894Z,22.30
2019-04-07T10:29:26.361Z,22.60
2019-04-07T10:32:23.661Z,21.50
2019-04-07T10:35:12.515Z,21.60
2019-04-07T10:37:56.868Z,21.10
2019-04-07T10:40:54.504Z,21.90
2019-04-07T10:43:42.528Z,22.40
2019-04-07T10:46:49.201Z,22.40
2019-04-07T10:49:57.896Z,22.80
2019-04-07T10:52:43.658Z,23.30
2019-04-07T10:55:22.222Z,23.60
2019-04-07T10:57:59.844Z,23.50
2019-04-07T11:00:49.495Z,23.00
2019-04-07T11:03:54.547Z,22.30
2019-04-07T11:06:48.316Z,21.70
2019-04-07T11:09:40.573Z,21.90
2019-04-07T11:12:33.251Z,22.30
2019-04-07T11:15:13.786Z,22.70
2019-04-07T11:17:50.322Z,22.70
2019-04-07T11:20:33.956Z,22.70
2019-04-07T11:23:18.695Z,23.40
2019-04-07T11:26:05.391Z,23.00
2019-04-07T11:28:56.904Z,22.90
2019-04-07T11:31:35.159Z,22.70
2019-04-07T11:34:22.839Z,22.60
2019-04-07T11:37:06.028Z,21.80
2019-04-07T11:40:04.804Z,21.70
2019-04-07T11:43:08.764Z,21.60
2019-04-07T11:45:56.182Z,20.50
2019-04-07T11:48:49.412Z,20.20
2019-04-07T11:51:24.689Z,21.20
2019-04-07T11:54:25.207Z,21.70
2019-04-07T11:57:20.443Z,21.80
2019-04-07T12:00:20.682Z,22.60
2019-04-07T12:03:17.116Z,22.60
2019-04-07T12:06:16.819Z,22.20
2019-04-07T12:09:20.662Z,21.90
2019-04-07T12:12:22.916Z,21.90
2019-04-07T12:15:10.405Z,21.40
2019-04-07T12:18:01.645Z,20.70
2019-04-07T12:20:42.342Z,20.60
2019-04-07T12:23:30.649Z,21.50
2019-04-07T12:26:15.922Z,21.80
2019-04-07T12:28:54.564Z,22.20
2019-04-07T12:31:47.601Z,22.30
2019-04-07T12:34:30.229Z,22.20
2019-04-07T12:37:15.607Z,21.90
2019-04-07T12:39:58.817Z,22.10
2019-04-07T12:42:50.271Z,22.50
2019-04-07T12:45:38.791Z,22.90
2019-04-07T12:48:19.495Z,23.50
2019-04-07T12:50:55.289Z,23.40
2019-04-07T12:53:43.373Z,23.10
2019-04-07T12:56:23.109Z,22.80
2019-04-07T12:59:09.589Z,22.90
2019-04-07T13:02:06.870Z,22.90
2019-04-07T13:04:53.457Z,22.90
2019-04-07T13:07:41.615Z,22.90
2019-04-07T13:10:41.736Z,23.00
2019-04-07T13:13:18.682Z,22.60
2019-04-07T13:16:26.419Z,22.50
2019-04-07T13:19:15.553Z,22.30
2019-04-07T13:22:04.303Z,22.90
2019-04-07T13:24:52.870Z,23.00
2019-04-07T13:27:41.591Z,23.70
2019-04-07T13:30:28.853Z,23.80
2019-04-07T13:33:19.408Z,23.20
2019-04-07T13:36:09.344Z,23.80
2019-04-07T13:38:46.891Z,23.00
2019-04-07T13:41:38.726Z,23.60
2019-04-07T13:44:24.385Z,24.10
2019-04-07T13:47:15.808Z,24.30
2019-04-07T13:50:02.591Z,24.60
2019-04-07T13:52:53.189Z,24.50
2019-04-07T13:55:43.788Z,23.70
2019-04-07T13:58:37.485Z,23.80
2019-04-07T14:01:25.707Z,24.40
2019-04-07T14:04:21.520Z,24.30
2019-04-07T14:07:10.016Z,24.30
2019-04-07T14:10:05.404Z,24.70
2019-04-07T14:12:53.310Z,24.40
2019-04-07T14:15:42.017Z,24.40
2019-04-07T14:18:32.994Z,24.10
2019-04-07T14:21:21.472Z,23.80
2019-04-07T14:24:10.136Z,23.20
2019-04-07T14:26:54.257Z,23.00
2019-04-07T14:29:40.407Z,22.60
2019-04-07T14:32:22.012Z,22.90
2019-04-07T14:35:12.962Z,22.90
2019-04-07T14:38:01.148Z,23.00
2019-04-07T14:41:00.020Z,22.70
2019-04-07T14:43:36.335Z,22.00
2019-04-07T14:46:37.135Z,21.80
2019-04-07T14:49:29.792Z,21.30
2019-04-07T14:52:14.495Z,20.40
2019-04-07T14:55:02.780Z,20.20
2019-04-07T14:57:51.392Z,19.50
2019-04-07T15:00:51.430Z,19.40
2019-04-07T15:03:21.373Z,18.90
2019-04-07T15:05:55.167Z,18.90
2019-04-07T15:08:47.496Z,18.80
2019-04-07T15:11:45.545Z,18.60
2019-04-07T15:14:14.966Z,18.60
2019-04-07T15:16:45.041Z,18.30
2019-04-07T15:19:14.487Z,17.90
2019-04-07T15:21:44.150Z,17.80
2019-04-07T15:24:13.614Z,17.30
2019-04-07T15:26:46.970Z,17.10
2019-04-07T15:29:14.572Z,17.00
2019-04-07T15:31:44.043Z,16.70
2019-04-07T15:34:14.401Z,16.50
2019-04-07T15:36:44.210Z,16.30
2019-04-07T15:39:13.466Z,15.90
2019-04-07T15:41:44.197Z,15.60
2019-04-07T15:44:15.241Z,15.40
2019-04-07T15:46:49.022Z,15.20
2019-04-07T15:49:15.470Z,15.10
2019-04-07T15:51:45.223Z,15.10
2019-04-07T15:54:14.717Z,15.00
2019-04-07T15:56:48.090Z,14.80
2019-04-07T15:59:17.632Z,14.90
2019-04-07T16:01:46.184Z,14.80
2019-04-07T16:04:15.966Z,14.90
2019-04-07T16:06:48.150Z,14.80
2019-04-07T16:09:29.633Z,14.80
2019-04-07T16:11:49.328Z,14.80
2019-04-07T16:14:18.249Z,14.70
2019-04-07T16:16:47.536Z,14.70
2019-04-07T16:19:21.941Z,14.70
2019-04-07T16:21:48.223Z,14.50
2019-04-07T16:24:17.850Z,14.30
2019-04-07T16:26:47.895Z,14.30
2019-04-07T16:29:19.051Z,14.30
2019-04-07T16:31:48.881Z,14.30
2019-04-07T16:34:19.183Z,14.40
2019-04-07T16:36:51.057Z,14.20
2019-04-07T16:39:21.110Z,14.30
2019-04-07T16:41:50.964Z,14.30
2019-04-07T16:44:20.536Z,14.20
2019-04-07T16:46:54.615Z,14.20
2019-04-07T16:49:21.851Z,14.20
2019-04-07T16:51:51.654Z,14.20
2019-04-07T16:54:21.743Z,14.10
2019-04-07T16:56:55.791Z,14.10
2019-04-07T16:59:23.001Z,14.10
2019-04-07T17:01:55.942Z,14.00
2019-04-07T17:04:31.090Z,14.00
2019-04-07T17:07:14.166Z,14.00
2019-04-07T17:09:41.449Z,13.90
2019-04-07T17:12:15.029Z,13.90
2019-04-07T17:14:45.877Z,13.90
2019-04-07T17:17:20.305Z,13.80
2019-04-07T17:19:48.463Z,13.80
2019-04-07T17:22:19.641Z,13.80
2019-04-07T17:24:50.091Z,13.70
2019-04-07T17:27:20.508Z,13.70
2019-04-07T17:29:54.118Z,13.40
2019-04-07T17:32:21.898Z,13.50
2019-04-07T17:34:51.903Z,13.20
2019-04-07T17:37:25.576Z,13.20
2019-04-07T17:40:11.211Z,13.20
2019-04-07T17:42:39.852Z,13.10
2019-04-07T17:45:27.536Z,12.80
2019-04-07T17:48:20.230Z,12.70
2019-04-07T17:51:10.099Z,12.60
2019-04-07T17:53:59.013Z,12.60
2019-04-07T17:57:01.165Z,12.50
2019-04-07T17:59:48.482Z,12.50
2019-04-07T18:02:38.597Z,12.50
2019-04-07T18:05:26.567Z,12.40
2019-04-07T18:08:05.854Z,12.40
2019-04-07T18:11:02.248Z,12.50
2019-04-07T18:13:51.273Z,12.30
2019-04-07T18:16:39.601Z,12.10
2019-04-07T18:19:31.556Z,12.00
2019-04-07T18:22:20.496Z,11.70
2019-04-07T18:25:14.417Z,11.70
2019-04-07T18:28:08.758Z,11.70
2019-04-07T18:30:50.397Z,11.60
2019-04-07T18:33:51.512Z,11.40
2019-04-07T18:36:56.169Z,11.20
2019-04-07T18:39:39.864Z,11.20
2019-04-07T18:42:31.378Z,11.20
2019-04-07T18:45:15.839Z,11.10
2019-04-07T18:47:59.701Z,10.90
2019-04-07T18:50:40.067Z,11.00
2019-04-07T18:53:32.734Z,10.90
2019-04-07T18:56:11.617Z,10.70
2019-04-07T18:58:58.525Z,10.60
2019-04-07T19:01:47.172Z,10.40
2019-04-07T19:04:34.901Z,10.60
2019-04-07T19:07:19.339Z,10.90
2019-04-07T19:10:20.055Z,10.90
2019-04-07T19:13:05.623Z,10.70
2019-04-07T19:16:04.324Z,10.80
2019-04-07T19:18:44.125Z,10.70
2019-04-07T19:21:24.753Z,10.70
2019-04-07T19:24:00.978Z,10.50
2019-04-07T19:26:39.206Z,10.40
2019-04-07T19:29:30.271Z,10.40
2019-04-07T19:32:22.421Z,10.40
2019-04-07T19:35:11.654Z,10.30
2019-04-07T19:37:52.760Z,10.20
2019-04-07T19:40:40.781Z,10.10
2019-04-07T19:43:35.198Z,9.80
2019-04-07T19:46:30.213Z,9.80
2019-04-07T19:49:17.834Z,9.70
2019-04-07T19:52:07.066Z,9.90
2019-04-07T19:54:49.430Z,9.90
2019-04-07T19:57:34.401Z,10.00
2019-04-07T20:00:26.616Z,9.80
2019-04-07T20:03:20.014Z,9.90
2019-04-07T20:06:24.793Z,9.90
2019-04-07T20:09:11.600Z,9.80
2019-04-07T20:12:08.588Z,9.90
2019-04-07T20:15:04.170Z,9.70
2019-04-07T20:17:58.429Z,9.70
2019-04-07T20:20:46.666Z,9.80
2019-04-07T20:23:35.766Z,9.90
2019-04-07T20:26:24.128Z,10.00
2019-04-07T20:29:19.360Z,10.00
2019-04-07T20:32:08.505Z,10.10
2019-04-07T20:34:55.899Z,10.10
2019-04-07T20:37:42.672Z,10.10
2019-04-07T20:40:42.983Z,10.00
2019-04-07T20:43:23.547Z,10.00
2019-04-07T20:46:05.074Z,10.10
2019-04-07T20:48:59.353Z,10.20
2019-04-07T20:51:50.608Z,10.20
2019-04-07T20:54:42.216Z,10.10
2019-04-07T20:57:29.133Z,10.10
2019-04-07T21:00:18.621Z,10.10
2019-04-07T21:03:15.303Z,10.10
2019-04-07T21:05:55.975Z,10.20
2019-04-07T21:09:03.700Z,10.10
2019-04-07T21:11:46.959Z,10.20
2019-04-07T21:14:41.824Z,10.20
2019-04-07T21:17:30.405Z,10.10
2019-04-07T21:20:11.774Z,10.10
2019-04-07T21:23:03.596Z,10.00
2019-04-07T21:25:44.589Z,9.90
2019-04-07T21:28:36.155Z,10.00
2019-04-07T21:31:18.626Z,10.00
2019-04-07T21:34:12.426Z,10.00
2019-04-07T21:36:50.555Z,10.00
2019-04-07T21:39:41.798Z,10.00
2019-04-07T21:42:37.953Z,10.00
2019-04-07T21:45:40.997Z,10.00
2019-04-07T21:48:17.891Z,10.00
2019-04-07T21:51:02.359Z,10.00
2019-04-07T21:53:36.803Z,10.00
2019-04-07T21:56:34.800Z,10.10
2019-04-07T21:59:21.621Z,10.10
2019-04-07T22:02:19.462Z,10.10
2019-04-07T22:05:07.898Z,10.00
2019-04-07T22:08:04.448Z,10.00
2019-04-07T22:10:30.762Z,10.00
2019-04-07T22:13:03.668Z,10.00
2019-04-07T22:15:42.146Z,10.00
2019-04-07T22:18:06.285Z,9.90
2019-04-07T22:20:34.933Z,9.90
2019-04-07T22:23:06.267Z,9.90
2019-04-07T22:25:44.141Z,9.80
2019-04-07T22:28:13.818Z,9.70
2019-04-07T22:30:44.811Z,9.70
2019-04-07T22:33:14.033Z,9.60
2019-04-07T22:35:44.492Z,9.70
2019-04-07T22:38:14.978Z,9.50
2019-04-07T22:40:44.359Z,9.50
2019-04-07T22:43:16.666Z,9.60
2019-04-07T22:45:55.762Z,9.60
2019-04-07T22:48:15.434Z,9.60
2019-04-07T22:50:45.404Z,9.60
2019-04-07T22:53:14.861Z,9.70
2019-04-07T22:55:44.175Z,9.70
2019-04-07T22:58:13.896Z,9.60
2019-04-07T23:00:43.218Z,9.70
2019-04-07T23:03:12.579Z,9.60
2019-04-07T23:05:41.856Z,9.60
2019-04-07T23:08:11.140Z,9.50
2019-04-07T23:10:40.821Z,9.50
2019-04-07T23:13:10.092Z,9.50
2019-04-07T23:15:44.301Z,9.50
2019-04-07T23:18:10.408Z,9.50
2019-04-07T23:20:39.835Z,9.60
2019-04-07T23:23:09.055Z,9.60
2019-04-07T23:25:38.553Z,9.60
2019-04-07T23:28:08.947Z,9.70
2019-04-07T23:30:38.170Z,9.60
2019-04-07T23:33:08.318Z,9.50
2019-04-07T23:35:37.783Z,9.60
2019-04-07T23:38:07.896Z,9.60
2019-04-07T23:40:37.750Z,9.60
2019-04-07T23:43:07.076Z,9.70
2019-04-07T23:45:36.305Z,9.60
2019-04-07T23:48:06.832Z,9.60
2019-04-07T23:50:36.276Z,9.60
2019-04-07T23:53:41.560Z,9.60
2019-04-07T23:56:10.804Z,9.60
2019-04-07T23:58:40.119Z,9.60
